sensor_id;sensor_type;location;lat;lon;timestamp;P1;durP1;ratioP1;P2;durP2;ratioP2
38785;SDS011;24535;45.508;12.252;2024-01-25T00:00:37;88.28;;;73.13;;
38785;SDS011;24535;45.508;12.252;2024-01-25T00:03:02;85.32;;;72.15;;
38785;SDS011;24535;45.508;12.252;2024-01-25T00:05:28;85.30;;;70.70;;
38785;SDS011;24535;45.508;12.252;2024-01-25T00:07:53;83.63;;;67.10;;
38785;SDS011;24535;45.508;12.252;2024-01-25T00:10:18;89.28;;;70.55;;
38785;SDS011;24535;45.508;12.252;2024-01-25T00:12:44;87.03;;;69.85;;
38785;SDS011;24535;45.508;12.252;2024-01-25T00:15:10;85.03;;;69.05;;
38785;SDS011;24535;45.508;12.252;2024-01-25T00:17:35;87.60;;;70.72;;
38785;SDS011;24535;45.508;12.252;2024-01-25T00:20:02;86.47;;;69.15;;
38785;SDS011;24535;45.508;12.252;2024-01-25T00:22:28;82.75;;;68.47;;
38785;SDS011;24535;45.508;12.252;2024-01-25T00:24:53;90.00;;;69.50;;
38785;SDS011;24535;45.508;12.252;2024-01-25T00:27:19;83.53;;;71.35;;
38785;SDS011;24535;45.508;12.252;2024-01-25T00:29:44;80.20;;;65.85;;
38785;SDS011;24535;45.508;12.252;2024-01-25T00:32:11;78.93;;;67.03;;
38785;SDS011;24535;45.508;12.252;2024-01-25T00:34:36;84.32;;;68.18;;
38785;SDS011;24535;45.508;12.252;2024-01-25T00:37:02;81.70;;;69.28;;
38785;SDS011;24535;45.508;12.252;2024-01-25T00:39:28;81.00;;;67.13;;
38785;SDS011;24535;45.508;12.252;2024-01-25T00:41:55;81.35;;;68.70;;
38785;SDS011;24535;45.508;12.252;2024-01-25T00:44:29;82.63;;;67.53;;
38785;SDS011;24535;45.508;12.252;2024-01-25T00:46:54;82.10;;;67.32;;
38785;SDS011;24535;45.508;12.252;2024-01-25T00:49:20;88.22;;;71.35;;
38785;SDS011;24535;45.508;12.252;2024-01-25T00:51:47;84.60;;;71.82;;
38785;SDS011;24535;45.508;12.252;2024-01-25T00:54:15;84.93;;;69.30;;
38785;SDS011;24535;45.508;12.252;2024-01-25T00:56:41;79.60;;;66.30;;
38785;SDS011;24535;45.508;12.252;2024-01-25T00:59:07;74.60;;;66.05;;
38785;SDS011;24535;45.508;12.252;2024-01-25T01:01:33;82.25;;;68.78;;
38785;SDS011;24535;45.508;12.252;2024-01-25T01:03:59;83.60;;;69.18;;
38785;SDS011;24535;45.508;12.252;2024-01-25T01:06:25;81.15;;;67.43;;
38785;SDS011;24535;45.508;12.252;2024-01-25T01:08:51;76.80;;;66.82;;
38785;SDS011;24535;45.508;12.252;2024-01-25T01:11:17;79.75;;;67.40;;
38785;SDS011;24535;45.508;12.252;2024-01-25T01:13:43;79.90;;;68.45;;
38785;SDS011;24535;45.508;12.252;2024-01-25T01:16:08;83.97;;;68.68;;
38785;SDS011;24535;45.508;12.252;2024-01-25T01:18:34;82.50;;;68.82;;
38785;SDS011;24535;45.508;12.252;2024-01-25T01:20:59;78.97;;;68.15;;
38785;SDS011;24535;45.508;12.252;2024-01-25T01:23:25;77.00;;;67.90;;
38785;SDS011;24535;45.508;12.252;2024-01-25T01:25:50;83.20;;;69.68;;
38785;SDS011;24535;45.508;12.252;2024-01-25T01:28:16;81.47;;;72.22;;
38785;SDS011;24535;45.508;12.252;2024-01-25T01:30:41;86.00;;;71.53;;
38785;SDS011;24535;45.508;12.252;2024-01-25T01:33:09;85.55;;;70.82;;
38785;SDS011;24535;45.508;12.252;2024-01-25T01:35:35;86.97;;;73.13;;
38785;SDS011;24535;45.508;12.252;2024-01-25T01:38:00;82.50;;;70.38;;
38785;SDS011;24535;45.508;12.252;2024-01-25T01:40:26;85.50;;;72.03;;
38785;SDS011;24535;45.508;12.252;2024-01-25T01:42:51;82.15;;;72.63;;
38785;SDS011;24535;45.508;12.252;2024-01-25T01:45:17;88.13;;;73.97;;
38785;SDS011;24535;45.508;12.252;2024-01-25T01:47:42;82.53;;;72.18;;
38785;SDS011;24535;45.508;12.252;2024-01-25T01:50:08;84.53;;;73.88;;
38785;SDS011;24535;45.508;12.252;2024-01-25T01:52:34;91.95;;;77.90;;
38785;SDS011;24535;45.508;12.252;2024-01-25T01:55:00;90.22;;;75.10;;
38785;SDS011;24535;45.508;12.252;2024-01-25T01:57:26;88.82;;;77.97;;
38785;SDS011;24535;45.508;12.252;2024-01-25T01:59:52;85.93;;;74.78;;
38785;SDS011;24535;45.508;12.252;2024-01-25T02:02:18;87.85;;;77.70;;
38785;SDS011;24535;45.508;12.252;2024-01-25T02:04:43;88.15;;;77.35;;
38785;SDS011;24535;45.508;12.252;2024-01-25T02:07:09;91.40;;;80.40;;
38785;SDS011;24535;45.508;12.252;2024-01-25T02:09:39;89.22;;;75.28;;
38785;SDS011;24535;45.508;12.252;2024-01-25T02:12:05;90.38;;;77.70;;
38785;SDS011;24535;45.508;12.252;2024-01-25T02:14:30;95.47;;;80.35;;
38785;SDS011;24535;45.508;12.252;2024-01-25T02:16:56;98.47;;;80.47;;
38785;SDS011;24535;45.508;12.252;2024-01-25T02:19:21;90.10;;;79.35;;
38785;SDS011;24535;45.508;12.252;2024-01-25T02:21:47;90.30;;;78.15;;
38785;SDS011;24535;45.508;12.252;2024-01-25T02:24:14;89.95;;;80.07;;
38785;SDS011;24535;45.508;12.252;2024-01-25T02:26:39;90.90;;;80.90;;
38785;SDS011;24535;45.508;12.252;2024-01-25T02:29:05;94.85;;;81.95;;
38785;SDS011;24535;45.508;12.252;2024-01-25T02:31:32;94.10;;;81.95;;
38785;SDS011;24535;45.508;12.252;2024-01-25T02:33:58;96.00;;;82.53;;
38785;SDS011;24535;45.508;12.252;2024-01-25T02:36:23;94.35;;;83.55;;
38785;SDS011;24535;45.508;12.252;2024-01-25T02:38:48;92.20;;;79.95;;
38785;SDS011;24535;45.508;12.252;2024-01-25T02:41:14;94.80;;;81.95;;
38785;SDS011;24535;45.508;12.252;2024-01-25T02:43:39;101.40;;;81.18;;
38785;SDS011;24535;45.508;12.252;2024-01-25T02:46:05;91.70;;;81.20;;
38785;SDS011;24535;45.508;12.252;2024-01-25T02:48:31;89.22;;;78.95;;
38785;SDS011;24535;45.508;12.252;2024-01-25T02:50:56;93.60;;;79.97;;
38785;SDS011;24535;45.508;12.252;2024-01-25T02:53:21;95.45;;;83.35;;
38785;SDS011;24535;45.508;12.252;2024-01-25T02:55:47;100.43;;;83.70;;
38785;SDS011;24535;45.508;12.252;2024-01-25T02:58:12;88.15;;;78.03;;
38785;SDS011;24535;45.508;12.252;2024-01-25T03:00:38;97.40;;;84.22;;
38785;SDS011;24535;45.508;12.252;2024-01-25T03:03:03;92.32;;;81.97;;
38785;SDS011;24535;45.508;12.252;2024-01-25T03:05:29;95.78;;;81.78;;
38785;SDS011;24535;45.508;12.252;2024-01-25T03:07:54;97.38;;;82.80;;
38785;SDS011;24535;45.508;12.252;2024-01-25T03:10:19;91.78;;;81.70;;
38785;SDS011;24535;45.508;12.252;2024-01-25T03:12:45;93.15;;;80.43;;
38785;SDS011;24535;45.508;12.252;2024-01-25T03:15:10;91.13;;;79.53;;
38785;SDS011;24535;45.508;12.252;2024-01-25T03:17:37;91.88;;;77.57;;
38785;SDS011;24535;45.508;12.252;2024-01-25T03:20:02;91.70;;;76.63;;
38785;SDS011;24535;45.508;12.252;2024-01-25T03:22:28;90.65;;;78.18;;
38785;SDS011;24535;45.508;12.252;2024-01-25T03:24:53;96.70;;;82.05;;
38785;SDS011;24535;45.508;12.252;2024-01-25T03:27:18;85.07;;;74.15;;
38785;SDS011;24535;45.508;12.252;2024-01-25T03:29:44;87.30;;;77.03;;
38785;SDS011;24535;45.508;12.252;2024-01-25T03:32:10;90.05;;;78.32;;
38785;SDS011;24535;45.508;12.252;2024-01-25T03:34:35;89.22;;;77.85;;
38785;SDS011;24535;45.508;12.252;2024-01-25T03:37:01;87.53;;;74.57;;
38785;SDS011;24535;45.508;12.252;2024-01-25T03:39:26;84.47;;;75.18;;
38785;SDS011;24535;45.508;12.252;2024-01-25T03:41:52;85.93;;;76.50;;
38785;SDS011;24535;45.508;12.252;2024-01-25T03:44:17;84.65;;;75.32;;
38785;SDS011;24535;45.508;12.252;2024-01-25T03:46:43;79.55;;;70.97;;
38785;SDS011;24535;45.508;12.252;2024-01-25T03:49:08;82.88;;;72.75;;
38785;SDS011;24535;45.508;12.252;2024-01-25T03:51:33;84.97;;;73.65;;
38785;SDS011;24535;45.508;12.252;2024-01-25T03:53:59;82.95;;;69.93;;
38785;SDS011;24535;45.508;12.252;2024-01-25T03:56:24;83.93;;;71.85;;
38785;SDS011;24535;45.508;12.252;2024-01-25T03:58:51;81.18;;;70.07;;
38785;SDS011;24535;45.508;12.252;2024-01-25T04:01:17;82.72;;;71.03;;
38785;SDS011;24535;45.508;12.252;2024-01-25T04:03:42;76.18;;;66.70;;
38785;SDS011;24535;45.508;12.252;2024-01-25T04:06:08;76.93;;;66.63;;
38785;SDS011;24535;45.508;12.252;2024-01-25T04:08:33;80.28;;;70.78;;
38785;SDS011;24535;45.508;12.252;2024-01-25T04:10:59;77.15;;;67.30;;
38785;SDS011;24535;45.508;12.252;2024-01-25T04:13:24;76.90;;;67.85;;
38785;SDS011;24535;45.508;12.252;2024-01-25T04:15:50;79.22;;;66.20;;
38785;SDS011;24535;45.508;12.252;2024-01-25T04:18:16;76.30;;;68.00;;
38785;SDS011;24535;45.508;12.252;2024-01-25T04:20:43;76.30;;;67.00;;
38785;SDS011;24535;45.508;12.252;2024-01-25T04:23:09;79.72;;;67.00;;
38785;SDS011;24535;45.508;12.252;2024-01-25T04:25:34;75.60;;;66.63;;
38785;SDS011;24535;45.508;12.252;2024-01-25T04:28:00;77.25;;;65.05;;
38785;SDS011;24535;45.508;12.252;2024-01-25T04:30:25;75.18;;;66.82;;
38785;SDS011;24535;45.508;12.252;2024-01-25T04:32:51;77.22;;;68.50;;
38785;SDS011;24535;45.508;12.252;2024-01-25T04:35:16;77.22;;;68.75;;
38785;SDS011;24535;45.508;12.252;2024-01-25T04:37:42;77.13;;;68.18;;
38785;SDS011;24535;45.508;12.252;2024-01-25T04:40:07;72.15;;;64.53;;
38785;SDS011;24535;45.508;12.252;2024-01-25T04:42:33;78.10;;;67.78;;
38785;SDS011;24535;45.508;12.252;2024-01-25T04:44:58;77.47;;;65.32;;
38785;SDS011;24535;45.508;12.252;2024-01-25T04:47:24;71.55;;;63.78;;
38785;SDS011;24535;45.508;12.252;2024-01-25T04:49:49;74.45;;;63.08;;
38785;SDS011;24535;45.508;12.252;2024-01-25T04:52:15;70.18;;;61.80;;
38785;SDS011;24535;45.508;12.252;2024-01-25T04:54:40;78.18;;;63.72;;
38785;SDS011;24535;45.508;12.252;2024-01-25T04:57:05;71.05;;;62.17;;
38785;SDS011;24535;45.508;12.252;2024-01-25T04:59:35;69.53;;;61.60;;
38785;SDS011;24535;45.508;12.252;2024-01-25T05:02:00;69.20;;;61.47;;
38785;SDS011;24535;45.508;12.252;2024-01-25T05:04:26;73.88;;;61.53;;
38785;SDS011;24535;45.508;12.252;2024-01-25T05:06:54;72.00;;;61.65;;
38785;SDS011;24535;45.508;12.252;2024-01-25T05:09:20;72.55;;;64.70;;
38785;SDS011;24535;45.508;12.252;2024-01-25T05:11:45;75.68;;;62.75;;
38785;SDS011;24535;45.508;12.252;2024-01-25T05:14:11;68.57;;;61.20;;
38785;SDS011;24535;45.508;12.252;2024-01-25T05:16:36;66.95;;;59.70;;
38785;SDS011;24535;45.508;12.252;2024-01-25T05:19:02;70.43;;;61.08;;
38785;SDS011;24535;45.508;12.252;2024-01-25T05:21:27;68.75;;;60.00;;
38785;SDS011;24535;45.508;12.252;2024-01-25T05:23:53;69.50;;;61.22;;
38785;SDS011;24535;45.508;12.252;2024-01-25T05:26:18;69.30;;;60.40;;
38785;SDS011;24535;45.508;12.252;2024-01-25T05:28:44;70.60;;;59.97;;
38785;SDS011;24535;45.508;12.252;2024-01-25T05:31:09;67.05;;;59.40;;
38785;SDS011;24535;45.508;12.252;2024-01-25T05:33:41;69.22;;;60.00;;
38785;SDS011;24535;45.508;12.252;2024-01-25T05:36:07;63.55;;;56.80;;
38785;SDS011;24535;45.508;12.252;2024-01-25T05:38:33;70.25;;;58.45;;
38785;SDS011;24535;45.508;12.252;2024-01-25T05:40:58;63.78;;;56.80;;
38785;SDS011;24535;45.508;12.252;2024-01-25T05:43:24;64.68;;;56.50;;
38785;SDS011;24535;45.508;12.252;2024-01-25T05:45:50;71.03;;;59.50;;
38785;SDS011;24535;45.508;12.252;2024-01-25T05:48:16;64.00;;;57.30;;
38785;SDS011;24535;45.508;12.252;2024-01-25T05:50:41;65.45;;;57.90;;
38785;SDS011;24535;45.508;12.252;2024-01-25T05:53:07;64.38;;;57.40;;
38785;SDS011;24535;45.508;12.252;2024-01-25T05:55:32;63.92;;;57.17;;
38785;SDS011;24535;45.508;12.252;2024-01-25T05:57:57;62.67;;;55.58;;
38785;SDS011;24535;45.508;12.252;2024-01-25T06:00:23;64.35;;;57.30;;
38785;SDS011;24535;45.508;12.252;2024-01-25T06:02:48;63.13;;;56.25;;
38785;SDS011;24535;45.508;12.252;2024-01-25T06:05:14;62.35;;;55.45;;
38785;SDS011;24535;45.508;12.252;2024-01-25T06:07:39;64.45;;;57.53;;
38785;SDS011;24535;45.508;12.252;2024-01-25T06:10:06;62.85;;;55.72;;
38785;SDS011;24535;45.508;12.252;2024-01-25T06:12:32;63.90;;;57.05;;
38785;SDS011;24535;45.508;12.252;2024-01-25T06:14:57;63.63;;;56.83;;
38785;SDS011;24535;45.508;12.252;2024-01-25T06:17:23;66.38;;;55.00;;
38785;SDS011;24535;45.508;12.252;2024-01-25T06:19:48;60.70;;;54.13;;
38785;SDS011;24535;45.508;12.252;2024-01-25T06:22:13;59.63;;;53.22;;
38785;SDS011;24535;45.508;12.252;2024-01-25T06:24:39;61.60;;;54.70;;
38785;SDS011;24535;45.508;12.252;2024-01-25T06:27:05;63.47;;;56.83;;
38785;SDS011;24535;45.508;12.252;2024-01-25T06:29:30;62.10;;;54.85;;
38785;SDS011;24535;45.508;12.252;2024-01-25T06:31:56;61.70;;;54.22;;
38785;SDS011;24535;45.508;12.252;2024-01-25T06:34:21;62.58;;;55.95;;
38785;SDS011;24535;45.508;12.252;2024-01-25T06:36:47;62.10;;;55.42;;
38785;SDS011;24535;45.508;12.252;2024-01-25T06:39:12;63.58;;;54.28;;
38785;SDS011;24535;45.508;12.252;2024-01-25T06:41:38;64.78;;;57.67;;
38785;SDS011;24535;45.508;12.252;2024-01-25T06:44:03;67.43;;;60.00;;
38785;SDS011;24535;45.508;12.252;2024-01-25T06:46:29;69.68;;;60.17;;
38785;SDS011;24535;45.508;12.252;2024-01-25T06:48:54;66.97;;;59.55;;
38785;SDS011;24535;45.508;12.252;2024-01-25T06:51:20;66.03;;;58.88;;
38785;SDS011;24535;45.508;12.252;2024-01-25T06:53:45;66.57;;;59.35;;
38785;SDS011;24535;45.508;12.252;2024-01-25T06:56:10;68.30;;;58.67;;
38785;SDS011;24535;45.508;12.252;2024-01-25T06:58:36;67.93;;;58.58;;
38785;SDS011;24535;45.508;12.252;2024-01-25T07:01:01;69.15;;;60.42;;
38785;SDS011;24535;45.508;12.252;2024-01-25T07:03:29;68.03;;;58.67;;
38785;SDS011;24535;45.508;12.252;2024-01-25T07:05:55;64.00;;;56.97;;
38785;SDS011;24535;45.508;12.252;2024-01-25T07:08:20;72.45;;;58.83;;
38785;SDS011;24535;45.508;12.252;2024-01-25T07:10:46;64.63;;;57.47;;
38785;SDS011;24535;45.508;12.252;2024-01-25T07:13:12;68.18;;;56.35;;
38785;SDS011;24535;45.508;12.252;2024-01-25T07:15:37;64.18;;;57.28;;
38785;SDS011;24535;45.508;12.252;2024-01-25T07:18:03;66.82;;;58.13;;
38785;SDS011;24535;45.508;12.252;2024-01-25T07:20:28;71.40;;;59.90;;
38785;SDS011;24535;45.508;12.252;2024-01-25T07:22:54;71.28;;;57.53;;
38785;SDS011;24535;45.508;12.252;2024-01-25T07:25:20;64.70;;;57.72;;
38785;SDS011;24535;45.508;12.252;2024-01-25T07:27:45;64.68;;;57.33;;
38785;SDS011;24535;45.508;12.252;2024-01-25T07:30:12;69.28;;;58.63;;
38785;SDS011;24535;45.508;12.252;2024-01-25T07:32:38;64.90;;;57.38;;
38785;SDS011;24535;45.508;12.252;2024-01-25T07:35:06;63.80;;;56.78;;
38785;SDS011;24535;45.508;12.252;2024-01-25T07:37:32;68.35;;;57.47;;
38785;SDS011;24535;45.508;12.252;2024-01-25T07:39:57;67.38;;;56.67;;
38785;SDS011;24535;45.508;12.252;2024-01-25T07:42:22;64.05;;;56.85;;
38785;SDS011;24535;45.508;12.252;2024-01-25T07:44:48;62.63;;;55.22;;
38785;SDS011;24535;45.508;12.252;2024-01-25T07:47:13;64.70;;;57.10;;
38785;SDS011;24535;45.508;12.252;2024-01-25T07:49:40;63.22;;;55.30;;
38785;SDS011;24535;45.508;12.252;2024-01-25T07:52:05;65.47;;;55.25;;
38785;SDS011;24535;45.508;12.252;2024-01-25T07:54:31;62.97;;;54.05;;
38785;SDS011;24535;45.508;12.252;2024-01-25T07:56:56;65.18;;;54.42;;
38785;SDS011;24535;45.508;12.252;2024-01-25T07:59:22;63.72;;;55.75;;
38785;SDS011;24535;45.508;12.252;2024-01-25T08:01:47;66.85;;;56.17;;
38785;SDS011;24535;45.508;12.252;2024-01-25T08:04:13;62.28;;;53.25;;
38785;SDS011;24535;45.508;12.252;2024-01-25T08:06:38;60.80;;;54.03;;
38785;SDS011;24535;45.508;12.252;2024-01-25T08:09:04;64.82;;;54.75;;
38785;SDS011;24535;45.508;12.252;2024-01-25T08:11:29;63.00;;;55.35;;
38785;SDS011;24535;45.508;12.252;2024-01-25T08:13:55;60.35;;;53.75;;
38785;SDS011;24535;45.508;12.252;2024-01-25T08:16:20;62.83;;;54.90;;
38785;SDS011;24535;45.508;12.252;2024-01-25T08:18:49;63.88;;;54.78;;
38785;SDS011;24535;45.508;12.252;2024-01-25T08:21:14;64.90;;;56.42;;
38785;SDS011;24535;45.508;12.252;2024-01-25T08:23:40;59.50;;;52.80;;
38785;SDS011;24535;45.508;12.252;2024-01-25T08:26:06;64.35;;;53.47;;
38785;SDS011;24535;45.508;12.252;2024-01-25T08:28:35;62.47;;;55.57;;
38785;SDS011;24535;45.508;12.252;2024-01-25T08:31:01;58.28;;;51.47;;
38785;SDS011;24535;45.508;12.252;2024-01-25T08:33:27;56.50;;;50.30;;
38785;SDS011;24535;45.508;12.252;2024-01-25T08:35:52;62.60;;;54.05;;
38785;SDS011;24535;45.508;12.252;2024-01-25T08:38:18;64.65;;;52.38;;
38785;SDS011;24535;45.508;12.252;2024-01-25T08:40:43;61.55;;;52.08;;
38785;SDS011;24535;45.508;12.252;2024-01-25T08:43:09;57.72;;;50.25;;
38785;SDS011;24535;45.508;12.252;2024-01-25T08:45:34;58.00;;;51.17;;
38785;SDS011;24535;45.508;12.252;2024-01-25T08:47:59;58.63;;;50.40;;
38785;SDS011;24535;45.508;12.252;2024-01-25T08:50:25;57.25;;;50.83;;
38785;SDS011;24535;45.508;12.252;2024-01-25T08:52:51;61.08;;;50.45;;
38785;SDS011;24535;45.508;12.252;2024-01-25T08:55:16;60.22;;;49.22;;
38785;SDS011;24535;45.508;12.252;2024-01-25T08:57:42;58.58;;;51.05;;
38785;SDS011;24535;45.508;12.252;2024-01-25T09:00:07;58.42;;;50.50;;
38785;SDS011;24535;45.508;12.252;2024-01-25T09:02:36;59.15;;;50.42;;
38785;SDS011;24535;45.508;12.252;2024-01-25T09:05:03;55.85;;;47.15;;
38785;SDS011;24535;45.508;12.252;2024-01-25T09:07:29;54.15;;;48.38;;
38785;SDS011;24535;45.508;12.252;2024-01-25T09:09:55;55.65;;;47.28;;
38785;SDS011;24535;45.508;12.252;2024-01-25T09:12:21;51.20;;;44.65;;
38785;SDS011;24535;45.508;12.252;2024-01-25T09:14:46;51.55;;;44.45;;
38785;SDS011;24535;45.508;12.252;2024-01-25T09:17:12;58.75;;;49.85;;
38785;SDS011;24535;45.508;12.252;2024-01-25T09:19:38;53.88;;;47.63;;
38785;SDS011;24535;45.508;12.252;2024-01-25T09:22:06;50.08;;;44.10;;
38785;SDS011;24535;45.508;12.252;2024-01-25T09:24:32;63.10;;;50.35;;
38785;SDS011;24535;45.508;12.252;2024-01-25T09:27:01;53.67;;;47.70;;
38785;SDS011;24535;45.508;12.252;2024-01-25T09:29:27;51.00;;;43.60;;
38785;SDS011;24535;45.508;12.252;2024-01-25T09:31:53;49.38;;;43.20;;
38785;SDS011;24535;45.508;12.252;2024-01-25T09:34:19;54.03;;;43.17;;
38785;SDS011;24535;45.508;12.252;2024-01-25T09:36:45;47.03;;;41.90;;
38785;SDS011;24535;45.508;12.252;2024-01-25T09:39:10;49.58;;;41.20;;
38785;SDS011;24535;45.508;12.252;2024-01-25T09:41:36;48.33;;;39.58;;
38785;SDS011;24535;45.508;12.252;2024-01-25T09:44:02;46.70;;;41.17;;
38785;SDS011;24535;45.508;12.252;2024-01-25T09:46:28;47.88;;;41.40;;
38785;SDS011;24535;45.508;12.252;2024-01-25T09:48:55;43.50;;;38.40;;
38785;SDS011;24535;45.508;12.252;2024-01-25T09:51:21;43.42;;;37.85;;
38785;SDS011;24535;45.508;12.252;2024-01-25T09:53:48;42.15;;;37.60;;
38785;SDS011;24535;45.508;12.252;2024-01-25T09:56:14;41.30;;;35.50;;
38785;SDS011;24535;45.508;12.252;2024-01-25T10:01:12;41.40;;;34.70;;
38785;SDS011;24535;45.508;12.252;2024-01-25T10:03:43;40.97;;;34.85;;
38785;SDS011;24535;45.508;12.252;2024-01-25T10:06:10;41.83;;;33.78;;
38785;SDS011;24535;45.508;12.252;2024-01-25T10:08:36;41.83;;;34.47;;
38785;SDS011;24535;45.508;12.252;2024-01-25T10:11:01;41.20;;;32.72;;
38785;SDS011;24535;45.508;12.252;2024-01-25T10:13:27;39.53;;;32.08;;
38785;SDS011;24535;45.508;12.252;2024-01-25T10:15:53;38.47;;;33.70;;
38785;SDS011;24535;45.508;12.252;2024-01-25T10:18:21;39.83;;;32.88;;
38785;SDS011;24535;45.508;12.252;2024-01-25T10:20:47;36.22;;;32.13;;
38785;SDS011;24535;45.508;12.252;2024-01-25T10:23:13;38.85;;;32.08;;
38785;SDS011;24535;45.508;12.252;2024-01-25T10:25:39;38.33;;;32.38;;
38785;SDS011;24535;45.508;12.252;2024-01-25T10:28:05;34.45;;;30.73;;
38785;SDS011;24535;45.508;12.252;2024-01-25T10:30:31;39.65;;;31.50;;
38785;SDS011;24535;45.508;12.252;2024-01-25T10:32:58;36.22;;;30.67;;
38785;SDS011;24535;45.508;12.252;2024-01-25T10:35:25;36.58;;;31.60;;
38785;SDS011;24535;45.508;12.252;2024-01-25T10:37:51;37.17;;;31.92;;
38785;SDS011;24535;45.508;12.252;2024-01-25T10:40:18;37.00;;;31.20;;
38785;SDS011;24535;45.508;12.252;2024-01-25T10:42:44;36.67;;;31.55;;
38785;SDS011;24535;45.508;12.252;2024-01-25T10:45:10;40.03;;;32.25;;
38785;SDS011;24535;45.508;12.252;2024-01-25T10:47:36;35.88;;;31.67;;
38785;SDS011;24535;45.508;12.252;2024-01-25T10:50:03;35.28;;;31.33;;
38785;SDS011;24535;45.508;12.252;2024-01-25T10:52:30;38.60;;;31.85;;
38785;SDS011;24535;45.508;12.252;2024-01-25T10:54:56;33.88;;;29.63;;
38785;SDS011;24535;45.508;12.252;2024-01-25T10:57:22;36.15;;;30.25;;
38785;SDS011;24535;45.508;12.252;2024-01-25T10:59:48;34.05;;;28.27;;
38785;SDS011;24535;45.508;12.252;2024-01-25T11:02:14;35.08;;;30.15;;
38785;SDS011;24535;45.508;12.252;2024-01-25T11:04:51;33.17;;;27.65;;
38785;SDS011;24535;45.508;12.252;2024-01-25T11:07:18;32.28;;;26.80;;
38785;SDS011;24535;45.508;12.252;2024-01-25T11:09:44;33.22;;;26.92;;
38785;SDS011;24535;45.508;12.252;2024-01-25T11:12:13;32.90;;;27.90;;
38785;SDS011;24535;45.508;12.252;2024-01-25T11:14:41;32.88;;;25.90;;
38785;SDS011;24535;45.508;12.252;2024-01-25T11:17:19;33.65;;;26.38;;
38785;SDS011;24535;45.508;12.252;2024-01-25T11:19:50;30.50;;;26.15;;
38785;SDS011;24535;45.508;12.252;2024-01-25T11:22:16;30.20;;;25.35;;
38785;SDS011;24535;45.508;12.252;2024-01-25T11:24:42;30.40;;;24.83;;
38785;SDS011;24535;45.508;12.252;2024-01-25T11:27:08;30.92;;;24.58;;
38785;SDS011;24535;45.508;12.252;2024-01-25T11:29:35;27.75;;;24.52;;
38785;SDS011;24535;45.508;12.252;2024-01-25T11:32:03;26.30;;;22.08;;
38785;SDS011;24535;45.508;12.252;2024-01-25T11:34:30;29.52;;;24.02;;
38785;SDS011;24535;45.508;12.252;2024-01-25T11:36:56;29.13;;;23.70;;
38785;SDS011;24535;45.508;12.252;2024-01-25T11:39:23;27.33;;;23.23;;
38785;SDS011;24535;45.508;12.252;2024-01-25T11:41:50;25.00;;;22.30;;
38785;SDS011;24535;45.508;12.252;2024-01-25T11:44:16;28.00;;;23.20;;
38785;SDS011;24535;45.508;12.252;2024-01-25T11:46:42;29.55;;;24.45;;
38785;SDS011;24535;45.508;12.252;2024-01-25T11:49:08;30.80;;;24.30;;
38785;SDS011;24535;45.508;12.252;2024-01-25T11:51:33;27.10;;;24.02;;
38785;SDS011;24535;45.508;12.252;2024-01-25T11:53:59;28.38;;;24.52;;
38785;SDS011;24535;45.508;12.252;2024-01-25T11:56:28;31.98;;;24.98;;
38785;SDS011;24535;45.508;12.252;2024-01-25T11:58:56;29.10;;;24.45;;
38785;SDS011;24535;45.508;12.252;2024-01-25T12:01:25;32.92;;;25.63;;
38785;SDS011;24535;45.508;12.252;2024-01-25T12:03:52;33.83;;;25.20;;
38785;SDS011;24535;45.508;12.252;2024-01-25T12:06:18;29.60;;;24.02;;
38785;SDS011;24535;45.508;12.252;2024-01-25T12:08:44;30.02;;;24.30;;
38785;SDS011;24535;45.508;12.252;2024-01-25T12:11:13;29.10;;;23.88;;
38785;SDS011;24535;45.508;12.252;2024-01-25T12:13:39;32.72;;;26.20;;
38785;SDS011;24535;45.508;12.252;2024-01-25T12:16:07;27.88;;;24.45;;
38785;SDS011;24535;45.508;12.252;2024-01-25T12:18:33;29.60;;;25.08;;
38785;SDS011;24535;45.508;12.252;2024-01-25T12:21:00;27.80;;;24.75;;
38785;SDS011;24535;45.508;12.252;2024-01-25T12:26:00;30.65;;;25.63;;
38785;SDS011;24535;45.508;12.252;2024-01-25T12:28:27;32.17;;;25.52;;
38785;SDS011;24535;45.508;12.252;2024-01-25T12:30:54;30.80;;;26.13;;
38785;SDS011;24535;45.508;12.252;2024-01-25T12:33:20;32.42;;;25.52;;
38785;SDS011;24535;45.508;12.252;2024-01-25T12:35:45;31.27;;;25.45;;
38785;SDS011;24535;45.508;12.252;2024-01-25T12:38:11;31.13;;;24.55;;
38785;SDS011;24535;45.508;12.252;2024-01-25T12:40:36;28.23;;;23.58;;
38785;SDS011;24535;45.508;12.252;2024-01-25T12:43:02;34.50;;;24.65;;
38785;SDS011;24535;45.508;12.252;2024-01-25T12:45:27;28.05;;;23.08;;
38785;SDS011;24535;45.508;12.252;2024-01-25T12:47:52;31.88;;;23.20;;
38785;SDS011;24535;45.508;12.252;2024-01-25T12:50:18;26.52;;;21.45;;
38785;SDS011;24535;45.508;12.252;2024-01-25T12:52:44;28.88;;;22.55;;
38785;SDS011;24535;45.508;12.252;2024-01-25T12:55:10;27.40;;;22.45;;
38785;SDS011;24535;45.508;12.252;2024-01-25T12:57:36;24.75;;;21.73;;
38785;SDS011;24535;45.508;12.252;2024-01-25T13:00:01;24.50;;;21.58;;
38785;SDS011;24535;45.508;12.252;2024-01-25T13:02:27;25.35;;;22.52;;
38785;SDS011;24535;45.508;12.252;2024-01-25T13:04:52;26.90;;;21.48;;
38785;SDS011;24535;45.508;12.252;2024-01-25T13:07:18;24.30;;;21.08;;
38785;SDS011;24535;45.508;12.252;2024-01-25T13:09:43;28.40;;;22.55;;
38785;SDS011;24535;45.508;12.252;2024-01-25T13:12:08;29.25;;;22.42;;
38785;SDS011;24535;45.508;12.252;2024-01-25T13:14:34;33.42;;;25.95;;
38785;SDS011;24535;45.508;12.252;2024-01-25T13:16:59;30.83;;;23.27;;
38785;SDS011;24535;45.508;12.252;2024-01-25T13:19:25;28.48;;;23.17;;
38785;SDS011;24535;45.508;12.252;2024-01-25T13:21:51;28.95;;;22.02;;
38785;SDS011;24535;45.508;12.252;2024-01-25T13:24:17;25.02;;;21.20;;
38785;SDS011;24535;45.508;12.252;2024-01-25T13:26:43;29.70;;;21.42;;
38785;SDS011;24535;45.508;12.252;2024-01-25T13:29:08;27.65;;;23.27;;
38785;SDS011;24535;45.508;12.252;2024-01-25T13:31:38;30.92;;;22.75;;
38785;SDS011;24535;45.508;12.252;2024-01-25T13:34:04;32.63;;;21.23;;
38785;SDS011;24535;45.508;12.252;2024-01-25T13:36:29;29.48;;;21.35;;
38785;SDS011;24535;45.508;12.252;2024-01-25T13:38:55;27.60;;;22.30;;
38785;SDS011;24535;45.508;12.252;2024-01-25T13:41:20;26.73;;;22.15;;
38785;SDS011;24535;45.508;12.252;2024-01-25T13:43:46;25.65;;;20.77;;
38785;SDS011;24535;45.508;12.252;2024-01-25T13:46:11;26.33;;;21.77;;
38785;SDS011;24535;45.508;12.252;2024-01-25T13:48:36;28.77;;;21.95;;
38785;SDS011;24535;45.508;12.252;2024-01-25T13:51:02;29.10;;;21.95;;
38785;SDS011;24535;45.508;12.252;2024-01-25T13:53:28;27.67;;;21.48;;
38785;SDS011;24535;45.508;12.252;2024-01-25T13:55:53;27.23;;;21.88;;
38785;SDS011;24535;45.508;12.252;2024-01-25T13:58:18;24.42;;;21.35;;
38785;SDS011;24535;45.508;12.252;2024-01-25T14:00:44;29.30;;;21.42;;
38785;SDS011;24535;45.508;12.252;2024-01-25T14:03:09;25.70;;;20.67;;
38785;SDS011;24535;45.508;12.252;2024-01-25T14:05:35;28.05;;;20.35;;